Time;durP1;ratioP1;P1;durP2;ratioP2;P2;SDS_P1;SDS_P2;PMS_P1;PMS_P2;Temp;Humidity;BMP_temperature;BMP_pressure;BME280_temperature;BME280_humidity;BME280_pressure;Samples;Min_cycle;Max_cycle;Signal;HPM_P1;HPM_P2
2021/08/29 00:02:54;;;;;;;11.38;6.95;;;14.30;99.90;;;;;;12501978;28;20044;-40
2021/08/29 00:08:56;;;;;;;9.82;6.90;;;14.40;99.90;;;;;;12505942;28;20189;-38
2021/08/29 00:14:58;;;;;;;10.52;7.45;;;14.30;99.90;;;;;;12506968;28;20076;-38
2021/08/29 00:21:00;;;;;;;9.35;7.00;;;14.30;99.90;;;;;;12508263;28;20104;-38
2021/08/29 00:27:02;;;;;;;8.80;7.25;;;14.30;99.90;;;;;;12509103;28;20072;-38
2021/08/29 00:33:04;;;;;;;11.13;8.77;;;14.40;99.90;;;;;;12509676;28;20098;-38
2021/08/29 00:39:06;;;;;;;14.18;9.80;;;14.30;99.90;;;;;;12504874;28;20148;-38
2021/08/29 00:45:11;;;;;;;12.40;9.30;;;14.40;99.90;;;;;;12514251;28;20362;-38
2021/08/29 00:51:15;;;;;;;14.52;9.68;;;14.40;99.90;;;;;;12521391;28;20045;-38
2021/08/29 00:57:18;;;;;;;14.82;9.55;;;14.40;99.90;;;;;;12523761;28;20077;-38
2021/08/29 01:03:24;;;;;;;11.57;9.05;;;14.40;99.90;;;;;;12517991;28;20057;-38
2021/08/29 01:09:26;;;;;;;14.82;8.68;;;14.30;99.90;;;;;;12521680;28;20068;-38
2021/08/29 01:15:31;;;;;;;14.63;9.10;;;14.30;99.90;;;;;;12518484;28;20065;-37
2021/08/29 01:21:36;;;;;;;12.77;8.13;;;14.30;99.90;;;;;;12517153;28;20060;-37
2021/08/29 01:27:48;;;;;;;14.82;9.02;;;14.30;99.90;;;;;;12517152;28;20742;-38
2021/08/29 01:33:51;;;;;;;13.40;8.98;;;14.30;99.90;;;;;;12518529;28;20038;-35
2021/08/29 01:39:55;;;;;;;12.25;9.55;;;14.40;99.90;;;;;;12522326;28;20044;-35
2021/08/29 01:45:59;;;;;;;13.35;9.68;;;14.40;99.90;;;;;;12517649;28;20612;-35
2021/08/29 01:52:01;;;;;;;;;;;14.40;99.90;;;;;;12514999;28;20065;-35
2021/08/29 01:58:04;;;;;;;13.52;9.07;;;14.40;99.90;;;;;;12516728;28;20425;-37
2021/08/29 02:04:06;;;;;;;14.43;8.80;;;14.40;99.90;;;;;;12515819;28;20045;-38
2021/08/29 02:10:10;;;;;;;9.90;7.45;;;14.50;99.90;;;;;;12512101;28;20081;-37
2021/08/29 02:16:16;;;;;;;13.98;7.53;;;14.60;99.90;;;;;;12513623;28;20102;-38
2021/08/29 02:22:18;;;;;;;10.13;7.68;;;14.50;99.90;;;;;;12514667;28;20056;-35
2021/08/29 02:28:20;;;;;;;10.60;7.20;;;14.60;99.90;;;;;;12513503;28;20165;-38
2021/08/29 02:34:23;;;;;;;13.23;6.78;;;14.50;99.90;;;;;;12511269;28;20049;-38
2021/08/29 02:40:28;;;;;;;9.02;6.68;;;14.60;99.90;;;;;;12515819;28;20056;-38
2021/08/29 02:46:30;;;;;;;9.52;5.90;;;14.50;99.90;;;;;;12513636;28;20056;-35
2021/08/29 02:52:33;;;;;;;8.63;6.05;;;14.50;99.90;;;;;;12511196;28;20049;-36
2021/08/29 02:58:36;;;;;;;11.32;6.78;;;14.40;99.90;;;;;;12504895;28;20064;-36
2021/08/29 03:04:39;;;;;;;12.45;6.53;;;14.50;99.90;;;;;;12512994;28;20053;-38
2021/08/29 03:10:41;;;;;;;15.38;7.63;;;14.50;99.90;;;;;;12495342;28;20084;-38
2021/08/29 03:16:44;;;;;;;18.48;8.63;;;14.50;99.90;;;;;;12510208;28;20077;-37
2021/08/29 03:22:46;;;;;;;19.67;9.80;;;14.50;99.90;;;;;;12510082;28;20045;-37
2021/08/29 03:28:48;;;;;;;16.42;7.43;;;14.30;99.90;;;;;;12512143;28;20581;-37
2021/08/29 03:34:54;;;;;;;12.77;6.35;;;14.10;99.90;;;;;;12512399;28;20132;-37
2021/08/29 03:40:56;;;;;;;14.48;6.47;;;13.90;99.90;;;;;;12508934;28;20159;-37
2021/08/29 03:46:59;;;;;;;10.73;5.88;;;13.90;99.90;;;;;;12510013;28;20057;-37
2021/08/29 03:53:02;;;;;;;8.88;5.70;;;13.90;99.90;;;;;;12505740;28;20163;-37
2021/08/29 03:59:05;;;;;;;11.57;5.63;;;14.00;99.90;;;;;;12513459;28;20069;-37
2021/08/29 04:05:08;;;;;;;8.75;5.70;;;14.10;99.90;;;;;;12509229;28;20065;-37
2021/08/29 04:11:11;;;;;;;11.02;6.40;;;14.10;99.90;;;;;;12508848;28;20098;-37
2021/08/29 04:17:14;;;;;;;11.23;6.93;;;14.10;99.90;;;;;;12512305;28;20092;-37
2021/08/29 04:23:17;;;;;;;11.93;6.70;;;14.20;99.90;;;;;;12510831;28;20103;-37
2021/08/29 04:29:19;;;;;;;13.40;6.85;;;14.20;99.90;;;;;;12508255;28;20049;-37
2021/08/29 04:35:21;;;;;;;11.70;5.75;;;14.20;99.90;;;;;;12504587;28;20123;-38
2021/08/29 04:41:23;;;;;;;9.48;6.03;;;14.20;99.90;;;;;;12488887;28;20152;-37
2021/08/29 04:47:25;;;;;;;11.48;5.97;;;14.20;99.90;;;;;;12509141;28;20056;-37
2021/08/29 04:53:27;;;;;;;7.85;4.65;;;14.20;99.90;;;;;;12515860;28;20132;-37
2021/08/29 04:59:30;;;;;;;6.88;3.53;;;14.30;99.90;;;;;;12525640;28;20045;-37
2021/08/29 05:05:33;;;;;;;7.10;3.45;;;14.20;99.90;;;;;;12510430;28;20072;-38
2021/08/29 05:11:36;;;;;;;6.68;3.50;;;14.10;99.90;;;;;;12509993;28;20052;-37
2021/08/29 05:17:42;;;;;;;6.43;3.50;;;14.10;99.90;;;;;;12513350;28;20147;-37
2021/08/29 05:23:45;;;;;;;5.07;3.55;;;14.00;99.90;;;;;;12517492;28;20064;-37
2021/08/29 05:29:48;;;;;;;8.50;3.67;;;14.00;99.90;;;;;;12519647;28;20075;-37
2021/08/29 05:35:51;;;;;;;5.78;3.95;;;14.00;99.90;;;;;;12523157;28;20072;-37
2021/08/29 05:41:54;;;;;;;;;;;14.00;99.90;;;;;;12525069;28;20057;-37
2021/08/29 05:47:58;;;;;;;4.05;2.85;;;14.00;99.90;;;;;;12522515;28;19933;-37
2021/08/29 05:54:00;;;;;;;4.10;2.70;;;13.90;99.90;;;;;;12514281;28;20049;-37
2021/08/29 06:00:04;;;;;;;4.22;2.47;;;14.00;99.90;;;;;;12519662;28;20494;-37
2021/08/29 06:06:06;;;;;;;5.27;1.77;;;13.90;99.90;;;;;;12510165;28;20487;-37
2021/08/29 06:12:08;;;;;;;3.92;1.95;;;13.90;99.90;;;;;;12524520;28;20095;-37
2021/08/29 06:18:10;;;;;;;3.85;1.90;;;13.90;99.90;;;;;;12519024;28;20049;-37
2021/08/29 06:24:18;;;;;;;2.35;1.45;;;14.00;99.90;;;;;;12525009;28;20090;-37
2021/08/29 06:30:30;;;;;;;5.47;1.60;;;13.90;99.90;;;;;;12502685;28;20520;-37
2021/08/29 06:36:32;;;;;;;3.85;1.60;;;13.80;99.90;;;;;;12517055;28;20135;-37
2021/08/29 06:42:35;;;;;;;4.65;1.83;;;13.90;99.90;;;;;;12515586;28;20077;-37
2021/08/29 06:48:38;;;;;;;2.70;1.80;;;14.00;99.90;;;;;;12519952;28;20052;-37
2021/08/29 06:54:40;;;;;;;3.20;1.70;;;14.00;99.90;;;;;;12518437;28;20041;-37
2021/08/29 07:00:43;;;;;;;2.60;1.70;;;14.10;99.90;;;;;;12519437;28;20049;-37
2021/08/29 07:06:48;;;;;;;2.67;1.90;;;14.10;99.90;;;;;;12511973;28;20454;-37
2021/08/29 07:12:51;;;;;;;3.08;1.73;;;14.10;99.90;;;;;;12516775;28;20095;-36
2021/08/29 07:18:54;;;;;;;3.65;1.77;;;14.20;99.90;;;;;;12512362;28;20461;-37
2021/08/29 07:24:57;;;;;;;4.75;2.10;;;14.20;99.90;;;;;;12506990;28;20109;-37
2021/08/29 07:30:59;;;;;;;2.15;1.52;;;14.10;99.90;;;;;;12517631;28;20053;-37
2021/08/29 07:37:02;;;;;;;2.53;1.67;;;14.20;99.90;;;;;;12520091;28;20068;-37
2021/08/29 07:43:04;;;;;;;2.88;2.10;;;14.20;99.90;;;;;;12515913;28;20064;-37
2021/08/29 07:49:07;;;;;;;3.50;1.80;;;14.30;99.90;;;;;;12515505;28;20049;-37
2021/08/29 07:55:10;;;;;;;2.85;2.03;;;14.30;99.90;;;;;;12520927;28;20042;-38
2021/08/29 08:01:12;;;;;;;4.80;2.78;;;14.30;99.90;;;;;;12499264;28;20041;-37
2021/08/29 08:07:15;;;;;;;4.85;3.42;;;14.30;99.90;;;;;;12515101;28;20132;-37
2021/08/29 08:13:17;;;;;;;5.30;3.95;;;14.30;99.90;;;;;;12517765;28;20053;-37
2021/08/29 08:19:21;;;;;;;4.82;3.85;;;14.30;99.90;;;;;;12516136;28;20396;-37
2021/08/29 08:25:24;;;;;;;;;;;14.30;99.90;;;;;;12510059;28;20045;-37
2021/08/29 08:31:25;;;;;;;8.00;5.90;;;14.30;99.90;;;;;;12513938;28;19925;-37
2021/08/29 08:37:28;;;;;;;6.68;4.78;;;14.40;99.90;;;;;;12513304;28;20050;-37
2021/08/29 08:43:32;;;;;;;6.47;4.00;;;14.30;99.90;;;;;;12493400;28;20499;-37
2021/08/29 08:49:34;;;;;;;5.73;4.20;;;14.40;99.90;;;;;;12518317;28;20098;-38
2021/08/29 08:55:39;;;;;;;5.05;3.95;;;14.40;99.90;;;;;;12517202;28;20045;-37
2021/08/29 09:01:43;;;;;;;7.90;4.10;;;14.40;99.90;;;;;;12515905;28;20627;-37
2021/08/29 09:07:46;;;;;;;5.10;3.28;;;14.40;99.90;;;;;;12525551;28;20052;-37
2021/08/29 09:13:49;;;;;;;4.60;3.42;;;14.40;99.90;;;;;;12522375;28;20080;-37
2021/08/29 09:20:12;;;;;;;7.65;3.00;;;14.50;99.90;;;;;;12520971;28;20099;-37
2021/08/29 09:26:20;;;;;;;3.40;2.88;;;14.60;99.90;;;;;;12525559;28;20094;-37
2021/08/29 09:32:29;;;;;;;5.43;3.45;;;14.70;99.90;;;;;;12524221;28;20056;-38
2021/08/29 09:38:41;;;;;;;3.75;3.33;;;14.70;99.90;;;;;;12525603;28;20053;-37
2021/08/29 09:44:55;;;;;;;4.03;3.63;;;14.70;99.90;;;;;;12499003;28;20045;-37
2021/08/29 09:50:58;;;;;;;4.40;3.78;;;14.80;99.90;;;;;;12525051;28;20049;-37
2021/08/29 09:57:14;;;;;;;4.10;3.10;;;14.80;99.90;;;;;;12521617;28;20677;-37
2021/08/29 10:03:28;;;;;;;4.25;3.35;;;14.80;99.90;;;;;;12523436;28;20048;-37
2021/08/29 10:09:31;;;;;;;5.60;3.42;;;14.90;99.90;;;;;;12526488;28;20048;-37
2021/08/29 10:15:36;;;;;;;7.03;3.40;;;15.10;99.90;;;;;;12518894;28;20156;-37
2021/08/29 10:21:38;;;;;;;;;;;15.20;99.90;;;;;;12523967;28;20552;-37
2021/08/29 10:27:46;;;;;;;5.55;4.13;;;15.30;99.90;;;;;;12520774;28;19928;-37
2021/08/29 10:33:51;;;;;;;5.40;4.18;;;15.20;99.90;;;;;;12525334;28;20099;-37
2021/08/29 10:39:58;;;;;;;6.32;4.57;;;15.30;99.90;;;;;;12515481;28;20041;-37
2021/08/29 10:46:10;;;;;;;6.50;5.20;;;15.30;99.90;;;;;;12522270;28;20110;-37
2021/08/29 10:52:15;;;;;;;7.13;5.47;;;15.30;99.90;;;;;;12519192;28;20049;-37
2021/08/29 10:58:20;;;;;;;6.72;4.90;;;15.30;99.90;;;;;;12520840;28;20056;-37
2021/08/29 11:04:25;;;;;;;6.50;5.40;;;15.40;99.90;;;;;;12514945;28;20098;-38
2021/08/29 11:10:46;;;;;;;8.38;5.43;;;15.40;99.90;;;;;;12516313;28;20580;-38
2021/08/29 11:17:12;;;;;;;7.15;5.45;;;15.40;99.90;;;;;;12517676;28;20443;-37
2021/08/29 11:23:53;;;;;;;5.22;4.50;;;15.50;99.90;;;;;;12515276;28;20388;-38
2021/08/29 11:29:56;;;;;;;6.78;4.40;;;15.30;99.90;;;;;;12513432;28;20103;-37
2021/08/29 11:36:01;;;;;;;5.32;4.57;;;15.30;99.90;;;;;;12515886;28;20148;-37
2021/08/29 11:42:18;;;;;;;7.15;4.60;;;15.20;99.90;;;;;;12510314;28;20110;-37
2021/08/29 11:48:27;;;;;;;6.90;4.60;;;15.20;99.90;;;;;;12511510;28;20107;-37
2021/08/29 11:54:31;;;;;;;5.82;4.72;;;15.20;99.90;;;;;;12513478;28;20144;-37
2021/08/29 12:00:36;;;;;;;8.38;4.95;;;15.20;99.90;;;;;;12519013;28;20048;-37
2021/08/29 12:06:46;;;;;;;6.40;4.50;;;15.30;99.90;;;;;;12512043;28;20045;-37
2021/08/29 12:12:56;;;;;;;7.70;4.90;;;15.40;99.90;;;;;;12520214;28;20052;-37
2021/08/29 12:18:59;;;;;;;6.18;4.53;;;15.30;99.90;;;;;;12523511;28;20059;-37
2021/08/29 12:25:07;;;;;;;6.73;4.73;;;15.40;99.90;;;;;;12515046;28;20472;-39
2021/08/29 12:31:19;;;;;;;8.27;5.20;;;15.40;99.90;;;;;;12517737;28;20053;-37
2021/08/29 12:37:34;;;;;;;6.47;4.82;;;15.50;99.90;;;;;;12526117;28;20127;-38
2021/08/29 12:43:42;;;;;;;7.53;4.95;;;15.50;99.90;;;;;;12526517;28;20053;-40
2021/08/29 12:50:03;;;;;;;5.85;4.60;;;15.60;99.90;;;;;;12530540;28;20125;-37
2021/08/29 12:56:20;;;;;;;5.43;4.22;;;15.60;99.90;;;;;;12528161;28;20167;-37
2021/08/29 13:02:28;;;;;;;6.00;4.35;;;15.70;99.90;;;;;;12529998;28;20373;-38
2021/08/29 13:08:44;;;;;;;7.85;4.72;;;15.70;99.90;;;;;;12524420;28;20200;-37
2021/08/29 13:14:47;;;;;;;5.95;4.95;;;15.70;99.90;;;;;;12521659;28;20504;-37
2021/08/29 13:20:50;;;;;;;7.50;5.30;;;15.60;99.90;;;;;;12523137;28;20045;-37
2021/08/29 13:26:55;;;;;;;5.85;5.25;;;15.70;99.90;;;;;;12521567;28;20088;-37
2021/08/29 13:32:58;;;;;;;7.07;5.00;;;15.70;99.90;;;;;;12514292;28;20137;-38
2021/08/29 13:39:16;;;;;;;5.80;4.70;;;15.70;99.90;;;;;;12526193;28;20186;-37
2021/08/29 13:45:24;;;;;;;6.22;4.60;;;15.70;99.90;;;;;;12521013;28;20075;-37
2021/08/29 13:51:27;;;;;;;5.50;4.18;;;15.80;99.90;;;;;;12527385;28;20045;-39
2021/08/29 13:57:33;;;;;;;4.83;3.77;;;15.90;99.90;;;;;;12530172;28;20049;-37
2021/08/29 14:03:39;;;;;;;4.22;3.30;;;16.00;99.90;;;;;;12519293;28;20124;-39
2021/08/29 14:09:44;;;;;;;4.28;2.90;;;16.00;99.90;;;;;;12523572;28;20382;-39
2021/08/29 14:15:58;;;;;;;4.22;3.53;;;16.00;99.90;;;;;;12517582;28;20508;-38
2021/08/29 14:22:24;;;;;;;3.97;3.22;;;16.00;99.90;;;;;;12527523;28;20044;-38
2021/08/29 14:28:31;;;;;;;4.10;3.00;;;16.00;99.90;;;;;;12522092;28;20045;-38
2021/08/29 14:34:37;;;;;;;4.57;2.90;;;16.10;99.90;;;;;;12524177;28;20064;-38
2021/08/29 14:40:43;;;;;;;4.20;3.13;;;16.20;99.90;;;;;;12523308;28;20041;-38
2021/08/29 14:46:50;;;;;;;4.00;2.58;;;16.20;99.90;;;;;;12526450;28;20053;-37
2021/08/29 14:52:58;;;;;;;3.88;3.10;;;16.10;99.90;;;;;;12521836;28;20044;-38
2021/08/29 14:59:14;;;;;;;3.75;3.10;;;16.20;99.90;;;;;;12533855;28;20931;-41
2021/08/29 15:05:27;;;;;;;5.22;3.20;;;16.20;99.90;;;;;;12503031;28;20405;-38
2021/08/29 15:11:38;;;;;;;5.93;3.25;;;16.20;99.90;;;;;;12510581;28;20068;-38
2021/08/29 15:17:45;;;;;;;3.88;2.92;;;16.30;99.90;;;;;;12506950;28;20049;-38
2021/08/29 15:23:50;;;;;;;4.83;4.17;;;16.30;99.90;;;;;;12527540;28;20052;-38
2021/08/29 15:30:00;;;;;;;4.97;3.53;;;16.30;99.90;;;;;;12498130;28;20084;-38
2021/08/29 15:36:08;;;;;;;4.50;3.80;;;16.40;99.90;;;;;;12518134;28;20505;-38
2021/08/29 15:42:20;;;;;;;6.37;4.13;;;16.50;99.90;;;;;;12512349;28;20140;-38
2021/08/29 15:48:25;;;;;;;7.30;4.05;;;16.70;99.90;;;;;;12519583;28;20497;-38
2021/08/29 15:54:35;;;;;;;;;;;16.70;99.90;;;;;;12488759;28;20053;-38
2021/08/29 16:00:47;;;;;;;4.57;4.10;;;16.60;99.90;;;;;;12520001;28;19925;-37
2021/08/29 16:06:51;;;;;;;6.15;3.42;;;16.60;99.90;;;;;;12518311;28;20118;-37
2021/08/29 16:12:53;;;;;;;5.35;4.00;;;16.50;99.90;;;;;;12501966;28;20060;-37
2021/08/29 16:18:56;;;;;;;6.43;4.50;;;16.40;99.90;;;;;;12494843;28;20053;-38
2021/08/29 16:24:59;;;;;;;3.22;2.30;;;16.20;99.90;;;;;;12504701;28;20050;-37
2021/08/29 16:31:02;;;;;;;7.50;2.30;;;16.20;99.90;;;;;;12490361;28;20050;-37
2021/08/29 16:37:06;;;;;;;5.43;2.90;;;16.00;99.90;;;;;;12494572;28;20049;-38
2021/08/29 16:43:09;;;;;;;8.07;3.40;;;15.90;99.90;;;;;;12514629;28;20157;-37
2021/08/29 16:49:15;;;;;;;6.45;3.65;;;15.80;99.90;;;;;;12515349;28;20061;-37
2021/08/29 16:55:22;;;;;;;8.40;4.45;;;15.80;99.90;;;;;;12495001;28;20053;-37
2021/08/29 17:01:28;;;;;;;10.65;4.57;;;15.80;99.90;;;;;;12504535;28;20045;-37
2021/08/29 17:07:45;;;;;;;8.50;4.75;;;15.80;99.90;;;;;;12520176;28;20073;-38
2021/08/29 17:13:51;;;;;;;10.60;5.80;;;15.70;99.90;;;;;;12514462;28;20068;-37
2021/08/29 17:19:54;;;;;;;9.27;5.72;;;15.70;99.90;;;;;;12514243;28;20110;-37
2021/08/29 17:25:57;;;;;;;14.93;6.80;;;15.70;99.90;;;;;;12517065;28;20090;-41
2021/08/29 17:32:05;;;;;;;11.32;6.93;;;15.60;99.90;;;;;;12526597;28;20132;-38
2021/08/29 17:38:16;;;;;;;14.25;7.53;;;15.50;99.90;;;;;;12506753;28;20397;-39
2021/08/29 17:44:25;;;;;;;11.82;7.78;;;15.50;99.90;;;;;;12520874;28;20168;-38
2021/08/29 17:50:42;;;;;;;15.40;8.80;;;15.40;99.90;;;;;;12521696;28;20052;-37
2021/08/29 17:56:49;;;;;;;21.55;10.40;;;15.40;99.90;;;;;;12506868;28;20052;-38
2021/08/29 18:03:02;;;;;;;14.13;9.63;;;15.40;99.90;;;;;;12524092;28;20049;-38
2021/08/29 18:09:07;;;;;;;25.42;11.10;;;15.40;99.90;;;;;;12503556;28;20072;-37
2021/08/29 18:15:10;;;;;;;18.08;10.93;;;15.40;99.90;;;;;;12521267;28;20068;-37
2021/08/29 18:21:17;;;;;;;18.30;11.48;;;15.40;99.90;;;;;;12520386;28;20140;-39
2021/08/29 18:27:30;;;;;;;26.02;12.85;;;15.30;99.90;;;;;;12520593;28;20059;-37
2021/08/29 18:33:33;;;;;;;23.67;12.98;;;15.30;99.90;;;;;;12507432;28;20053;-37
2021/08/29 18:39:36;;;;;;;30.20;14.10;;;15.30;99.90;;;;;;12509145;28;20056;-38
2021/08/29 18:45:38;;;;;;;29.05;13.90;;;15.30;99.90;;;;;;12509450;28;20079;-37
2021/08/29 18:51:46;;;;;;;22.05;12.75;;;15.30;99.90;;;;;;12505668;28;20560;-37
2021/08/29 18:57:52;;;;;;;17.95;13.00;;;15.30;99.90;;;;;;12508114;28;20045;-40
2021/08/29 19:03:54;;;;;;;24.45;14.27;;;15.30;99.90;;;;;;12509948;28;20084;-38
2021/08/29 19:09:57;;;;;;;20.70;13.45;;;15.30;99.90;;;;;;12498326;28;20064;-37
2021/08/29 19:16:02;;;;;;;27.63;14.98;;;15.40;99.90;;;;;;12512361;28;20095;-37
2021/08/29 19:22:05;;;;;;;28.00;14.90;;;15.40;99.90;;;;;;12513597;28;20096;-38
2021/08/29 19:28:07;;;;;;;27.23;15.77;;;15.40;99.90;;;;;;12516288;28;20198;-37
2021/08/29 19:34:12;;;;;;;31.88;18.20;;;15.40;99.90;;;;;;12510084;28;20409;-38
2021/08/29 19:40:16;;;;;;;30.70;18.58;;;15.50;99.90;;;;;;12516109;28;20486;-37
2021/08/29 19:46:22;;;;;;;28.90;18.45;;;15.50;99.90;;;;;;12509265;28;20096;-37
2021/08/29 19:52:26;;;;;;;31.05;18.88;;;15.50;99.90;;;;;;12519893;28;20045;-37
2021/08/29 19:58:28;;;;;;;28.05;17.35;;;15.50;99.90;;;;;;12511242;28;20052;-38
2021/08/29 20:04:30;;;;;;;29.10;18.38;;;15.50;99.90;;;;;;12518490;28;20081;-38
2021/08/29 20:10:32;;;;;;;41.35;17.90;;;15.50;99.90;;;;;;12513726;28;20572;-37
2021/08/29 20:16:35;;;;;;;27.98;16.55;;;15.60;99.90;;;;;;12513105;28;20243;-38
2021/08/29 20:22:37;;;;;;;28.38;16.63;;;15.70;99.90;;;;;;12502079;28;20061;-37
2021/08/29 20:28:40;;;;;;;22.17;14.95;;;15.70;99.90;;;;;;12498553;28;20057;-38
2021/08/29 20:34:42;;;;;;;25.83;16.17;;;15.70;99.90;;;;;;12502973;28;20481;-37
2021/08/29 20:40:44;;;;;;;29.88;16.55;;;15.60;99.90;;;;;;12498712;28;20087;-38
2021/08/29 20:46:46;;;;;;;22.48;16.55;;;15.50;99.90;;;;;;12506012;28;20137;-37
2021/08/29 20:52:49;;;;;;;25.33;16.45;;;15.50;99.90;;;;;;12514890;28;20092;-37
2021/08/29 20:58:52;;;;;;;19.85;15.27;;;15.50;99.90;;;;;;12522036;28;20044;-37
2021/08/29 21:04:54;;;;;;;21.27;14.65;;;15.70;99.90;;;;;;12526719;28;20057;-38
2021/08/29 21:11:02;;;;;;;21.60;16.08;;;15.60;99.90;;;;;;12518373;28;20046;-37
2021/08/29 21:17:23;;;;;;;20.85;15.05;;;15.60;99.90;;;;;;12537692;28;20045;-37
2021/08/29 21:23:46;;;;;;;20.73;15.05;;;15.70;99.90;;;;;;12503332;28;20037;-37
2021/08/29 21:29:59;;;;;;;27.50;15.13;;;15.60;99.90;;;;;;12523815;28;20049;-37
2021/08/29 21:36:24;;;;;;;23.55;15.65;;;15.70;99.90;;;;;;12524521;28;20556;-38
2021/08/29 21:43:00;;;;;;;21.42;15.50;;;15.70;99.90;;;;;;12508715;28;20086;-38
2021/08/29 21:49:05;;;;;;;23.75;15.93;;;15.60;99.90;;;;;;12522024;28;20046;-39
2021/08/29 21:55:09;;;;;;;27.92;16.95;;;15.60;99.90;;;;;;12520405;28;20053;-38
2021/08/29 22:01:18;;;;;;;;;;;15.60;99.90;;;;;;12530976;28;20049;-37
2021/08/29 22:07:36;;;;;;;25.38;15.35;;;15.50;99.90;;;;;;12528221;28;20011;-38
2021/08/29 22:13:42;;;;;;;22.13;14.65;;;15.50;99.90;;;;;;12517295;28;20048;-38
2021/08/29 22:19:58;;;;;;;22.37;14.93;;;15.50;99.90;;;;;;12511293;28;20076;-38
2021/08/29 22:26:19;;;;;;;19.77;15.05;;;15.50;99.90;;;;;;12513037;28;20152;-38
2021/08/29 22:32:43;;;;;;;24.50;15.50;;;15.50;99.90;;;;;;12517904;28;20084;-38
2021/08/29 22:38:58;;;;;;;20.00;14.90;;;15.50;99.90;;;;;;12532390;28;20063;-37
2021/08/29 22:45:37;;;;;;;19.35;14.77;;;15.50;99.90;;;;;;12534821;28;20052;-38
2021/08/29 22:52:28;;;;;;;21.25;15.20;;;15.50;99.90;;;;;;12510584;28;20045;-38
2021/08/29 22:59:02;;;;;;;24.25;15.65;;;15.40;99.90;;;;;;12527727;28;20083;-37
2021/08/29 23:05:35;;;;;;;25.75;15.82;;;15.50;99.90;;;;;;12502698;28;20497;-39
2021/08/29 23:11:58;;;;;;;26.27;16.65;;;15.40;99.90;;;;;;12491082;28;20049;-38
2021/08/29 23:18:31;;;;;;;26.05;16.08;;;15.40;99.90;;;;;;12519306;28;20053;-40
2021/08/29 23:24:59;;;;;;;30.60;17.52;;;15.50;99.90;;;;;;12528014;28;20048;-37
2021/08/29 23:31:29;;;;;;;21.35;15.85;;;15.40;99.90;;;;;;12525009;28;20053;-40
2021/08/29 23:38:04;;;;;;;23.03;16.67;;;15.40;99.90;;;;;;12528426;28;20049;-38
2021/08/29 23:44:12;;;;;;;24.42;15.95;;;15.40;99.90;;;;;;12522588;28;20045;-40
2021/08/29 23:51:14;;;;;;;23.73;16.00;;;15.50;99.90;;;;;;12524954;28;20417;-37
2021/08/29 23:57:33;;;;;;;23.42;16.15;;;15.40;99.90;;;;;;12515617;28;20049;-37
